Time;durP1;ratioP1;P1;durP2;ratioP2;P2;SDS_P1;SDS_P2;PMS_P1;PMS_P2;Temp;Humidity;BMP_temperature;BMP_pressure;BME280_temperature;BME280_humidity;BME280_pressure;Samples;Min_cycle;Max_cycle;Signal;HPM_P1;HPM_P2
2022/12/01 00:01:32;;;;;;;14.27;9.20;;;;;;;;;;5027674;28;20084;-73
2022/12/01 00:03:58;;;;;;;14.93;9.88;;;;;;;;;;5026701;28;20517;-72
2022/12/01 00:06:25;;;;;;;13.68;9.63;;;;;;;;;;5024814;28;20026;-70
2022/12/01 00:11:37;;;;;;;10.75;6.93;;;;;;;;;;5024572;28;20041;-71
2022/12/01 00:14:04;;;;;;;10.88;6.72;;;;;;;;;;5020317;28;20041;-71
2022/12/01 00:16:30;;;;;;;8.27;5.72;;;;;;;;;;5027826;28;20075;-71
2022/12/01 00:18:57;;;;;;;8.95;6.70;;;;;;;;;;5019112;28;20037;-71
2022/12/01 00:21:25;;;;;;;8.45;5.75;;;;;;;;;;5015923;28;20384;-71
2022/12/01 00:23:53;;;;;;;7.88;5.57;;;;;;;;;;5022481;28;20068;-71
2022/12/01 00:26:20;;;;;;;9.77;5.90;;;;;;;;;;5018466;28;20026;-71
2022/12/01 00:28:55;;;;;;;9.38;6.32;;;;;;;;;;5020091;28;20495;-70
2022/12/01 00:31:23;;;;;;;9.70;6.20;;;;;;;;;;5035686;28;20053;-70
2022/12/01 00:33:49;;;;;;;11.25;7.18;;;;;;;;;;5042056;28;20164;-71
2022/12/01 00:36:15;;;;;;;11.20;7.50;;;;;;;;;;5044635;28;20024;-71
2022/12/01 00:38:41;;;;;;;13.15;8.23;;;;;;;;;;5049157;28;20107;-72
2022/12/01 00:41:07;;;;;;;12.60;8.20;;;;;;;;;;5043830;28;20175;-71
2022/12/01 00:43:33;;;;;;;11.43;7.50;;;;;;;;;;5046451;28;20029;-71
2022/12/01 00:45:59;;;;;;;12.45;8.45;;;;;;;;;;5043731;28;20069;-71
2022/12/01 00:48:25;;;;;;;14.05;9.23;;;;;;;;;;5046168;28;20063;-69
2022/12/01 00:50:53;;;;;;;13.43;8.80;;;;;;;;;;5041772;28;20117;-70
2022/12/01 00:53:19;;;;;;;13.57;8.15;;;;;;;;;;5040127;28;20071;-70
2022/12/01 00:55:45;;;;;;;9.85;6.78;;;;;;;;;;5037039;28;20032;-70
2022/12/01 00:58:13;;;;;;;11.27;7.53;;;;;;;;;;5038501;28;20036;-71
2022/12/01 01:00:39;;;;;;;12.65;7.65;;;;;;;;;;5037000;28;20045;-72
2022/12/01 01:03:08;;;;;;;14.18;8.73;;;;;;;;;;5041762;28;20448;-71
2022/12/01 01:05:41;;;;;;;12.57;7.88;;;;;;;;;;5044297;28;20037;-71
2022/12/01 01:08:09;;;;;;;12.68;8.05;;;;;;;;;;5045301;28;20436;-71
2022/12/01 01:10:38;;;;;;;12.32;8.18;;;;;;;;;;5041165;28;20042;-71
2022/12/01 01:13:04;;;;;;;12.80;7.50;;;;;;;;;;5041389;28;20033;-72
2022/12/01 01:15:30;;;;;;;12.23;7.97;;;;;;;;;;5042890;28;20581;-71
2022/12/01 01:17:56;;;;;;;12.70;8.48;;;;;;;;;;5049879;28;20107;-71
2022/12/01 01:20:22;;;;;;;12.77;8.30;;;;;;;;;;5039698;28;20450;-71
2022/12/01 01:22:48;;;;;;;11.73;7.88;;;;;;;;;;5040553;28;20060;-71
2022/12/01 01:25:14;;;;;;;12.02;7.10;;;;;;;;;;5049170;28;20387;-71
2022/12/01 01:27:40;;;;;;;10.70;6.68;;;;;;;;;;5046933;28;20375;-71
2022/12/01 01:30:06;;;;;;;10.90;7.10;;;;;;;;;;5041578;28;20100;-69
2022/12/01 01:32:33;;;;;;;11.23;6.82;;;;;;;;;;5050587;28;20083;-71
2022/12/01 01:34:59;;;;;;;10.98;6.35;;;;;;;;;;5044867;28;20060;-71
2022/12/01 01:37:26;;;;;;;10.38;6.60;;;;;;;;;;5044872;28;20033;-71
2022/12/01 01:39:52;;;;;;;9.63;6.07;;;;;;;;;;5043154;28;20272;-73
2022/12/01 01:42:19;;;;;;;11.38;6.32;;;;;;;;;;5043367;28;20024;-73
2022/12/01 01:44:51;;;;;;;10.90;6.60;;;;;;;;;;5038268;28;20028;-71
2022/12/01 01:47:39;;;;;;;12.30;6.95;;;;;;;;;;5042807;28;20509;-71
2022/12/01 01:50:11;;;;;;;11.98;7.28;;;;;;;;;;5046762;28;20040;-72
2022/12/01 01:52:50;;;;;;;10.88;7.28;;;;;;;;;;5034565;28;20052;-72
2022/12/01 01:55:17;;;;;;;9.95;6.43;;;;;;;;;;5040102;28;20045;-72
2022/12/01 01:57:43;;;;;;;10.15;6.35;;;;;;;;;;5044214;28;20025;-71
2022/12/01 02:00:13;;;;;;;10.23;6.65;;;;;;;;;;5048953;28;20079;-72
2022/12/01 02:02:44;;;;;;;10.90;6.95;;;;;;;;;;5041425;28;20029;-71
2022/12/01 02:05:17;;;;;;;12.10;7.53;;;;;;;;;;5035670;28;20036;-72
2022/12/01 02:07:44;;;;;;;11.77;6.88;;;;;;;;;;5047824;28;20036;-72
2022/12/01 02:10:12;;;;;;;11.52;7.10;;;;;;;;;;5039590;28;20037;-72
2022/12/01 02:13:03;;;;;;;10.07;6.90;;;;;;;;;;5045422;28;20037;-71
2022/12/01 02:15:38;;;;;;;11.60;7.22;;;;;;;;;;5044383;28;20083;-71
2022/12/01 02:18:21;;;;;;;11.07;7.72;;;;;;;;;;5046404;28;20036;-71
2022/12/01 02:21:28;;;;;;;11.60;7.38;;;;;;;;;;5044352;28;20095;-71
2022/12/01 02:24:25;;;;;;;12.30;7.88;;;;;;;;;;5035374;28;20075;-71
2022/12/01 02:27:11;;;;;;;11.20;6.57;;;;;;;;;;5026631;28;20034;-72
2022/12/01 02:29:53;;;;;;;11.80;7.65;;;;;;;;;;5035891;28;20048;-72
2022/12/01 02:32:47;;;;;;;11.30;7.32;;;;;;;;;;5043816;28;20383;-71
2022/12/01 02:35:56;;;;;;;11.60;7.90;;;;;;;;;;5044221;28;20029;-72
2022/12/01 02:38:54;;;;;;;12.70;7.63;;;;;;;;;;5053583;28;20049;-71
2022/12/01 02:41:26;;;;;;;13.20;8.48;;;;;;;;;;5041260;28;20032;-71
2022/12/01 02:44:02;;;;;;;14.70;8.88;;;;;;;;;;5037741;28;20043;-71
2022/12/01 02:46:38;;;;;;;14.20;8.57;;;;;;;;;;5047123;28;20417;-71
2022/12/01 02:49:14;;;;;;;14.43;8.23;;;;;;;;;;5040866;28;20083;-71
2022/12/01 02:51:43;;;;;;;13.77;8.00;;;;;;;;;;5036169;28;20113;-71
2022/12/01 02:54:11;;;;;;;13.75;8.95;;;;;;;;;;5043545;28;20192;-71
2022/12/01 02:56:38;;;;;;;13.05;7.93;;;;;;;;;;5039957;28;20029;-71
2022/12/01 02:59:11;;;;;;;14.70;8.70;;;;;;;;;;5043282;28;20578;-71
2022/12/01 03:01:58;;;;;;;15.82;8.57;;;;;;;;;;5046552;28;20032;-71
2022/12/01 03:04:45;;;;;;;14.23;8.65;;;;;;;;;;5038491;28;20148;-71
2022/12/01 03:07:34;;;;;;;13.90;8.45;;;;;;;;;;5038700;28;20375;-71
2022/12/01 03:10:25;;;;;;;13.80;9.40;;;;;;;;;;5047102;28;20071;-71
2022/12/01 03:13:07;;;;;;;11.85;7.50;;;;;;;;;;5033177;28;20123;-71
2022/12/01 03:16:05;;;;;;;10.63;6.35;;;;;;;;;;5037744;28;20091;-71
2022/12/01 03:18:36;;;;;;;10.68;6.57;;;;;;;;;;5043290;28;20122;-72
2022/12/01 03:21:25;;;;;;;10.88;6.85;;;;;;;;;;5046441;28;20131;-71
2022/12/01 03:23:59;;;;;;;13.80;7.45;;;;;;;;;;5037137;28;20056;-70
2022/12/01 03:26:29;;;;;;;11.52;7.25;;;;;;;;;;5044019;28;20033;-72
2022/12/01 03:28:59;;;;;;;12.05;7.90;;;;;;;;;;5045078;28;20465;-71
2022/12/01 03:31:32;;;;;;;11.95;8.15;;;;;;;;;;5043501;28;20041;-71
2022/12/01 03:34:14;;;;;;;14.43;8.23;;;;;;;;;;5036349;28;20037;-70
2022/12/01 03:37:03;;;;;;;11.95;7.90;;;;;;;;;;5043085;28;20048;-70
2022/12/01 03:39:32;;;;;;;14.35;7.55;;;;;;;;;;5039652;28;20037;-70
2022/12/01 03:42:06;;;;;;;11.05;6.78;;;;;;;;;;5047217;28;20055;-71
2022/12/01 03:44:47;;;;;;;11.23;7.25;;;;;;;;;;5037391;28;20502;-71
2022/12/01 03:47:23;;;;;;;12.88;7.68;;;;;;;;;;5054690;28;20052;-71
2022/12/01 03:49:51;;;;;;;11.25;6.60;;;;;;;;;;5037465;28;20037;-71
2022/12/01 03:52:40;;;;;;;10.30;6.45;;;;;;;;;;5040408;28;20420;-71
2022/12/01 03:55:29;;;;;;;9.88;6.63;;;;;;;;;;5039681;28;20379;-71
2022/12/01 03:57:57;;;;;;;10.90;6.63;;;;;;;;;;5046294;28;20029;-71
2022/12/01 04:00:23;;;;;;;10.60;5.93;;;;;;;;;;5046880;28;20025;-71
2022/12/01 04:02:57;;;;;;;10.45;5.95;;;;;;;;;;5049094;28;20044;-72
2022/12/01 04:05:24;;;;;;;7.22;5.25;;;;;;;;;;5048859;28;20115;-71
2022/12/01 04:07:50;;;;;;;9.02;5.88;;;;;;;;;;5049128;28;20090;-71
2022/12/01 04:10:16;;;;;;;9.05;6.22;;;;;;;;;;5048888;28;20037;-72
2022/12/01 04:12:42;;;;;;;10.82;7.28;;;;;;;;;;5048909;28;20025;-72
2022/12/01 04:15:11;;;;;;;9.38;6.30;;;;;;;;;;5043618;28;20041;-72
2022/12/01 04:17:42;;;;;;;9.40;6.15;;;;;;;;;;5049830;28;20036;-72
2022/12/01 04:20:09;;;;;;;12.48;6.53;;;;;;;;;;5049115;28;20455;-71
2022/12/01 04:22:36;;;;;;;9.40;6.20;;;;;;;;;;5049231;28;20091;-72
2022/12/01 04:25:03;;;;;;;6.85;5.03;;;;;;;;;;5049599;28;20032;-71
2022/12/01 04:27:29;;;;;;;7.40;4.68;;;;;;;;;;5048290;28;20029;-72
2022/12/01 04:29:55;;;;;;;7.03;4.18;;;;;;;;;;5049295;28;20453;-72
2022/12/01 04:32:21;;;;;;;5.47;3.92;;;;;;;;;;5049995;28;20061;-72
2022/12/01 04:34:47;;;;;;;5.90;4.00;;;;;;;;;;5050812;28;20032;-71
2022/12/01 04:37:13;;;;;;;5.68;3.95;;;;;;;;;;5052629;28;20112;-72
2022/12/01 04:39:40;;;;;;;6.88;4.10;;;;;;;;;;5053362;28;20056;-71
2022/12/01 04:42:07;;;;;;;6.40;4.40;;;;;;;;;;5052896;28;20083;-72
2022/12/01 04:44:33;;;;;;;5.80;3.58;;;;;;;;;;5053004;28;20116;-71
2022/12/01 04:46:59;;;;;;;6.80;4.45;;;;;;;;;;5052144;28;20057;-72
2022/12/01 04:49:25;;;;;;;5.10;3.40;;;;;;;;;;5053648;28;20079;-72
2022/12/01 04:51:51;;;;;;;11.27;6.70;;;;;;;;;;5051029;28;20065;-72
2022/12/01 04:54:17;;;;;;;8.63;5.22;;;;;;;;;;5054518;28;20063;-71
2022/12/01 04:56:44;;;;;;;9.90;6.18;;;;;;;;;;5054720;28;20553;-71
2022/12/01 04:59:09;;;;;;;7.97;4.88;;;;;;;;;;5053398;28;20071;-72
2022/12/01 05:01:35;;;;;;;13.45;5.93;;;;;;;;;;5054265;28;20104;-71
2022/12/01 05:04:01;;;;;;;8.98;5.30;;;;;;;;;;5053575;28;20116;-73
2022/12/01 05:06:28;;;;;;;11.38;6.18;;;;;;;;;;5053417;28;20036;-72
2022/12/01 05:08:58;;;;;;;11.95;7.53;;;;;;;;;;5053676;28;20470;-71
2022/12/01 05:11:25;;;;;;;10.90;7.03;;;;;;;;;;5053751;28;20493;-71
2022/12/01 05:13:51;;;;;;;8.60;6.10;;;;;;;;;;5053285;28;20063;-71
2022/12/01 05:16:30;;;;;;;9.20;5.85;;;;;;;;;;5053773;28;20064;-72
2022/12/01 05:21:45;;;;;;;12.30;7.25;;;;;;;;;;5053955;28;20028;-71
2022/12/01 05:24:11;;;;;;;12.05;8.05;;;;;;;;;;5054231;28;20135;-72
2022/12/01 05:26:38;;;;;;;12.57;8.50;;;;;;;;;;5053915;28;20033;-71
2022/12/01 05:29:04;;;;;;;13.40;8.90;;;;;;;;;;5053496;28;20540;-71
2022/12/01 05:31:32;;;;;;;14.65;9.52;;;;;;;;;;5053464;28;20045;-71
2022/12/01 05:33:58;;;;;;;14.18;8.60;;;;;;;;;;5054012;28;20048;-71
2022/12/01 05:36:24;;;;;;;14.10;8.73;;;;;;;;;;5053640;28;20483;-72
2022/12/01 05:38:49;;;;;;;13.25;8.10;;;;;;;;;;5053843;28;20386;-72
2022/12/01 05:41:16;;;;;;;16.15;8.55;;;;;;;;;;5052148;28;20033;-72
2022/12/01 05:43:41;;;;;;;15.90;10.45;;;;;;;;;;5052134;28;20031;-72
2022/12/01 05:46:08;;;;;;;13.68;9.00;;;;;;;;;;5052423;28;20434;-71
2022/12/01 05:48:34;;;;;;;10.13;7.18;;;;;;;;;;5053441;28;20032;-72
2022/12/01 05:51:07;;;;;;;10.70;6.43;;;;;;;;;;5054444;28;20033;-72
2022/12/01 05:53:33;;;;;;;8.90;4.90;;;;;;;;;;5052648;28;20044;-72
2022/12/01 05:55:58;;;;;;;6.95;4.25;;;;;;;;;;5054131;28;20047;-71
2022/12/01 05:58:24;;;;;;;5.85;4.30;;;;;;;;;;5056025;28;20029;-71
2022/12/01 06:00:50;;;;;;;6.85;4.68;;;;;;;;;;5054187;28;20032;-72
2022/12/01 06:03:16;;;;;;;8.00;5.40;;;;;;;;;;5054018;28;20052;-72
2022/12/01 06:05:42;;;;;;;5.90;4.43;;;;;;;;;;5084259;28;20083;-71
2022/12/01 06:08:08;;;;;;;6.68;4.30;;;;;;;;;;5033375;28;20025;-72
2022/12/01 06:10:34;;;;;;;7.60;4.82;;;;;;;;;;5032485;28;20040;-72
2022/12/01 06:13:00;;;;;;;7.97;5.30;;;;;;;;;;5032835;28;20418;-71
2022/12/01 06:15:26;;;;;;;9.18;5.70;;;;;;;;;;5032700;28;20506;-73
2022/12/01 06:17:52;;;;;;;11.13;6.63;;;;;;;;;;5083529;28;20048;-72
2022/12/01 06:20:18;;;;;;;8.82;5.05;;;;;;;;;;5051708;28;20119;-72
2022/12/01 06:22:44;;;;;;;6.80;4.80;;;;;;;;;;5067248;28;20072;-73
2022/12/01 06:25:10;;;;;;;6.63;4.43;;;;;;;;;;5050893;28;20199;-75
2022/12/01 06:27:37;;;;;;;6.63;4.57;;;;;;;;;;5042511;28;20450;-76
2022/12/01 06:30:04;;;;;;;6.32;4.72;;;;;;;;;;5048411;28;20039;-75
2022/12/01 06:32:30;;;;;;;7.85;4.65;;;;;;;;;;5052082;28;20111;-77
2022/12/01 06:34:56;;;;;;;9.63;4.70;;;;;;;;;;5082922;28;20497;-75
2022/12/01 06:37:22;;;;;;;10.68;6.15;;;;;;;;;;5052499;28;20036;-75
2022/12/01 06:39:48;;;;;;;6.95;5.28;;;;;;;;;;5052710;28;20091;-74
2022/12/01 06:42:14;;;;;;;8.45;5.28;;;;;;;;;;5050893;28;20021;-75
2022/12/01 06:44:40;;;;;;;10.02;7.13;;;;;;;;;;5050750;28;20040;-75
2022/12/01 06:47:07;;;;;;;11.45;7.80;;;;;;;;;;5050842;28;20467;-74
2022/12/01 06:49:33;;;;;;;10.30;6.38;;;;;;;;;;5051153;28;20037;-75
2022/12/01 06:52:01;;;;;;;8.60;5.57;;;;;;;;;;5052452;28;20043;-75
2022/12/01 06:54:27;;;;;;;9.68;5.82;;;;;;;;;;5052215;28;20414;-76
2022/12/01 06:56:52;;;;;;;8.73;6.20;;;;;;;;;;5049884;28;20060;-75
2022/12/01 06:59:18;;;;;;;10.13;6.07;;;;;;;;;;5049170;28;20040;-75
2022/12/01 07:01:44;;;;;;;8.25;5.68;;;;;;;;;;5049965;28;20139;-76
2022/12/01 07:04:11;;;;;;;6.90;4.72;;;;;;;;;;5051801;28;20447;-76
2022/12/01 07:06:38;;;;;;;8.88;5.57;;;;;;;;;;5050863;28;20071;-76
2022/12/01 07:09:04;;;;;;;9.90;5.78;;;;;;;;;;5052046;28;20936;-77
2022/12/01 07:11:31;;;;;;;7.07;4.95;;;;;;;;;;5049817;28;20045;-78
2022/12/01 07:13:57;;;;;;;8.18;5.28;;;;;;;;;;5052941;28;20499;-78
2022/12/01 07:16:25;;;;;;;6.53;4.32;;;;;;;;;;5050529;28;20108;-77
2022/12/01 07:18:52;;;;;;;6.72;4.28;;;;;;;;;;5050773;28;20040;-75
2022/12/01 07:21:19;;;;;;;6.18;4.43;;;;;;;;;;5053043;28;20530;-78
2022/12/01 07:23:46;;;;;;;7.70;4.50;;;;;;;;;;5048830;28;20029;-78
2022/12/01 07:26:16;;;;;;;6.57;4.43;;;;;;;;;;5051121;28;20021;-76
2022/12/01 07:28:43;;;;;;;6.15;4.40;;;;;;;;;;5052287;28;20051;-75
2022/12/01 07:31:15;;;;;;;7.13;4.53;;;;;;;;;;5052164;28;20490;-75
2022/12/01 07:33:41;;;;;;;6.60;4.75;;;;;;;;;;5040016;28;20545;-75
2022/12/01 07:36:08;;;;;;;6.82;4.57;;;;;;;;;;5048071;28;20029;-77
2022/12/01 07:38:35;;;;;;;6.78;4.90;;;;;;;;;;5049557;28;20144;-76
2022/12/01 07:41:05;;;;;;;7.47;4.82;;;;;;;;;;5051840;28;20025;-78
2022/12/01 07:43:33;;;;;;;7.45;4.97;;;;;;;;;;5049166;28;20033;-75
2022/12/01 07:46:08;;;;;;;5.88;4.18;;;;;;;;;;5052056;28;20025;-73
2022/12/01 07:48:37;;;;;;;5.78;3.85;;;;;;;;;;5051733;28;20036;-73
2022/12/01 07:51:04;;;;;;;6.43;4.13;;;;;;;;;;5047967;28;20024;-72
2022/12/01 07:53:31;;;;;;;7.07;3.95;;;;;;;;;;5051228;28;20041;-74
2022/12/01 07:55:57;;;;;;;9.20;4.00;;;;;;;;;;5051256;28;20044;-70
2022/12/01 08:04:42;;;;;;;8.20;5.70;;;;;;;;;;4697327;28;20424;-72
2022/12/01 08:07:08;;;;;;;6.07;4.50;;;;;;;;;;4966934;28;20045;-72
2022/12/01 08:09:34;;;;;;;7.38;5.57;;;;;;;;;;4986742;28;20031;-73
2022/12/01 08:12:00;;;;;;;6.95;4.13;;;;;;;;;;4975117;28;20034;-72
2022/12/01 08:14:26;;;;;;;6.78;4.55;;;;;;;;;;4975385;28;20023;-72
2022/12/01 08:16:52;;;;;;;6.53;4.70;;;;;;;;;;4978645;28;20053;-72
2022/12/01 08:19:18;;;;;;;6.35;4.32;;;;;;;;;;4978540;28;20515;-71
2022/12/01 08:21:43;;;;;;;6.03;4.13;;;;;;;;;;4973439;28;20078;-71
2022/12/01 08:24:10;;;;;;;7.43;4.68;;;;;;;;;;4990718;28;20023;-74
2022/12/01 08:26:36;;;;;;;8.65;7.07;;;;;;;;;;4974664;28;20045;-72
2022/12/01 08:29:02;;;;;;;6.63;5.07;;;;;;;;;;4974230;28;20029;-72
2022/12/01 08:31:30;;;;;;;7.20;5.13;;;;;;;;;;4975752;28;20023;-73
2022/12/01 08:33:56;;;;;;;6.05;4.85;;;;;;;;;;4994693;28;20600;-72
2022/12/01 08:36:23;;;;;;;6.20;4.90;;;;;;;;;;4992991;28;20034;-73
2022/12/01 08:38:54;;;;;;;5.05;4.00;;;;;;;;;;4971547;28;20037;-72
2022/12/01 08:41:21;;;;;;;6.00;4.47;;;;;;;;;;4967508;28;20117;-73
2022/12/01 08:43:46;;;;;;;5.65;4.30;;;;;;;;;;4969443;28;20420;-74
2022/12/01 08:46:13;;;;;;;6.00;4.22;;;;;;;;;;4973111;28;20113;-74
2022/12/01 08:48:39;;;;;;;4.18;3.45;;;;;;;;;;4974984;28;20479;-74
2022/12/01 08:51:14;;;;;;;6.05;4.55;;;;;;;;;;4972233;28;20027;-74
2022/12/01 08:53:42;;;;;;;6.55;4.32;;;;;;;;;;5000230;28;20038;-74
2022/12/01 08:56:21;;;;;;;12.82;7.38;;;;;;;;;;4974988;28;20031;-74
2022/12/01 08:58:47;;;;;;;5.18;4.20;;;;;;;;;;4973257;28;20503;-75
2022/12/01 09:01:14;;;;;;;8.05;5.38;;;;;;;;;;4974623;28;20137;-73
2022/12/01 09:03:42;;;;;;;7.80;5.78;;;;;;;;;;4973084;28;20037;-73
2022/12/01 09:06:10;;;;;;;7.97;4.80;;;;;;;;;;4973282;28;20496;-73
2022/12/01 09:08:36;;;;;;;7.57;5.00;;;;;;;;;;4974860;28;20125;-73
2022/12/01 09:11:09;;;;;;;6.05;4.00;;;;;;;;;;4989530;28;20431;-73
2022/12/01 09:13:38;;;;;;;6.68;4.25;;;;;;;;;;4973713;28;20067;-73
2022/12/01 09:16:10;;;;;;;5.68;4.30;;;;;;;;;;4973327;28;20045;-74
2022/12/01 09:18:36;;;;;;;5.50;4.15;;;;;;;;;;4973429;28;20077;-74
2022/12/01 09:21:23;;;;;;;5.15;3.28;;;;;;;;;;4974904;28;20043;-72
2022/12/01 09:23:49;;;;;;;4.22;2.90;;;;;;;;;;4993288;28;20034;-74
2022/12/01 09:26:17;;;;;;;4.10;2.50;;;;;;;;;;4993906;28;20117;-74
2022/12/01 09:28:51;;;;;;;3.30;2.40;;;;;;;;;;4994474;28;20065;-73
2022/12/01 09:31:17;;;;;;;5.65;4.05;;;;;;;;;;4994040;28;20052;-73
2022/12/01 09:33:43;;;;;;;6.07;3.65;;;;;;;;;;4994232;28;20444;-73
2022/12/01 09:36:10;;;;;;;4.10;3.40;;;;;;;;;;4994608;28;20046;-71
2022/12/01 09:38:37;;;;;;;4.35;2.97;;;;;;;;;;4994309;28;20048;-72
2022/12/01 09:41:24;;;;;;;4.70;3.28;;;;;;;;;;4976685;28;20484;-73
2022/12/01 09:44:04;;;;;;;3.85;3.28;;;;;;;;;;4973146;28;20043;-72
2022/12/01 09:46:40;;;;;;;5.18;3.97;;;;;;;;;;4988697;28;20034;-72
2022/12/01 09:49:16;;;;;;;3.67;3.03;;;;;;;;;;4974969;28;20030;-71
2022/12/01 09:51:42;;;;;;;4.90;3.80;;;;;;;;;;4974302;28;20114;-73
2022/12/01 09:54:12;;;;;;;3.90;3.05;;;;;;;;;;4974245;28;20098;-72
2022/12/01 09:56:51;;;;;;;5.47;3.47;;;;;;;;;;4977377;28;20134;-72
2022/12/01 09:59:26;;;;;;;7.20;3.55;;;;;;;;;;4981773;28;20035;-73
2022/12/01 10:02:01;;;;;;;5.00;3.35;;;;;;;;;;4974448;28;20039;-72
2022/12/01 10:04:35;;;;;;;4.50;3.05;;;;;;;;;;4988974;28;20492;-73
2022/12/01 10:07:21;;;;;;;7.20;3.30;;;;;;;;;;4974132;28;20050;-72
2022/12/01 10:10:00;;;;;;;4.35;3.30;;;;;;;;;;4974523;28;20506;-72
2022/12/01 10:12:31;;;;;;;5.35;3.40;;;;;;;;;;4988864;28;20614;-72
2022/12/01 10:15:44;;;;;;;4.20;3.33;;;;;;;;;;4981536;28;20088;-72
2022/12/01 10:18:36;;;;;;;3.25;2.53;;;;;;;;;;4971184;28;20043;-71
2022/12/01 10:21:32;;;;;;;3.38;2.10;;;;;;;;;;4964898;28;20492;-71
2022/12/01 10:24:04;;;;;;;4.20;2.97;;;;;;;;;;4975737;28;20042;-72
2022/12/01 10:26:36;;;;;;;4.75;3.50;;;;;;;;;;4974287;28;20506;-71
2022/12/01 10:29:41;;;;;;;6.15;4.35;;;;;;;;;;4972844;28;20074;-72
2022/12/01 10:32:22;;;;;;;5.90;3.70;;;;;;;;;;4965680;28;20039;-72
2022/12/01 10:34:48;;;;;;;5.55;3.67;;;;;;;;;;4972989;28;20037;-72
2022/12/01 10:37:26;;;;;;;4.55;3.40;;;;;;;;;;4981107;28;20030;-72
2022/12/01 10:39:55;;;;;;;5.22;3.95;;;;;;;;;;4972263;28;20039;-72
2022/12/01 10:42:38;;;;;;;7.95;4.30;;;;;;;;;;4972987;28;20030;-73
2022/12/01 10:45:13;;;;;;;7.80;4.10;;;;;;;;;;4987350;28;20511;-72
2022/12/01 10:48:14;;;;;;;6.50;4.97;;;;;;;;;;4972429;28;20035;-71
2022/12/01 10:50:47;;;;;;;5.70;4.18;;;;;;;;;;4972536;28;20470;-74
2022/12/01 10:53:22;;;;;;;3.47;2.65;;;;;;;;;;4987576;28;20034;-72
2022/12/01 10:56:03;;;;;;;4.90;3.60;;;;;;;;;;4972778;28;20073;-74
2022/12/01 10:58:51;;;;;;;4.38;3.20;;;;;;;;;;4973178;28;20035;-73
2022/12/01 11:01:21;;;;;;;5.10;3.88;;;;;;;;;;4970545;28;20042;-72
2022/12/01 11:03:54;;;;;;;5.95;4.45;;;;;;;;;;4969808;28;20407;-72
2022/12/01 11:06:23;;;;;;;4.75;4.20;;;;;;;;;;4973232;28;20046;-72
2022/12/01 11:08:55;;;;;;;5.30;4.20;;;;;;;;;;4973490;28;20035;-72
2022/12/01 11:11:28;;;;;;;6.38;4.53;;;;;;;;;;4972510;28;20232;-72
2022/12/01 11:13:56;;;;;;;5.50;4.35;;;;;;;;;;4973602;28;20447;-72
2022/12/01 11:16:42;;;;;;;5.43;3.88;;;;;;;;;;4972815;28;20031;-72
2022/12/01 11:19:37;;;;;;;5.63;4.63;;;;;;;;;;4971465;28;20395;-71
2022/12/01 11:22:32;;;;;;;6.85;5.22;;;;;;;;;;4972497;28;20097;-71
2022/12/01 11:25:04;;;;;;;6.68;5.10;;;;;;;;;;4970078;28;20054;-72
2022/12/01 11:27:36;;;;;;;7.80;6.35;;;;;;;;;;4978449;28;20549;-72
2022/12/01 11:30:18;;;;;;;7.65;5.55;;;;;;;;;;4992356;28;20113;-73
2022/12/01 11:33:13;;;;;;;11.00;5.35;;;;;;;;;;4992001;28;20175;-72
2022/12/01 11:35:44;;;;;;;;;;;;;;;;;;4992969;28;20034;-73
2022/12/01 11:38:21;;;;;;;12.38;7.57;;;;;;;;;;4990978;28;19917;-71
2022/12/01 11:40:51;;;;;;;9.95;8.00;;;;;;;;;;4972650;28;20030;-72
2022/12/01 11:43:30;;;;;;;10.65;8.30;;;;;;;;;;4971276;28;20507;-72
2022/12/01 11:46:00;;;;;;;8.00;7.03;;;;;;;;;;4971207;28;20050;-72
2022/12/01 11:48:33;;;;;;;9.50;7.72;;;;;;;;;;4972721;28;20043;-72
2022/12/01 11:51:28;;;;;;;18.08;11.98;;;;;;;;;;4972556;28;20088;-72
2022/12/01 11:54:17;;;;;;;11.18;8.93;;;;;;;;;;4972172;28;20518;-72
2022/12/01 11:56:45;;;;;;;8.68;7.60;;;;;;;;;;4972463;28;20445;-72
2022/12/01 11:59:14;;;;;;;10.60;7.63;;;;;;;;;;4972363;28;20030;-72
2022/12/01 12:02:05;;;;;;;12.15;9.25;;;;;;;;;;4973097;28;20039;-72
2022/12/01 12:04:41;;;;;;;9.55;8.05;;;;;;;;;;4972756;28;20057;-72
2022/12/01 12:07:13;;;;;;;10.25;8.10;;;;;;;;;;4972914;28;20053;-72
2022/12/01 12:09:45;;;;;;;13.45;9.05;;;;;;;;;;4972736;28;20039;-72
2022/12/01 12:12:29;;;;;;;13.00;10.00;;;;;;;;;;4973197;28;20031;-73
2022/12/01 12:15:10;;;;;;;16.00;10.35;;;;;;;;;;4979291;28;20124;-72
2022/12/01 12:18:02;;;;;;;14.70;10.35;;;;;;;;;;4973365;28;20385;-73
2022/12/01 12:20:42;;;;;;;13.38;9.45;;;;;;;;;;4973141;28;20035;-72
2022/12/01 12:23:23;;;;;;;12.40;8.98;;;;;;;;;;4988541;28;20039;-72
2022/12/01 12:26:11;;;;;;;14.52;10.35;;;;;;;;;;4972858;28;20496;-72
2022/12/01 12:28:54;;;;;;;13.63;7.60;;;;;;;;;;4972692;28;20037;-71
2022/12/01 12:31:31;;;;;;;13.67;10.47;;;;;;;;;;4973118;28;20038;-72
2022/12/01 12:34:00;;;;;;;14.82;11.27;;;;;;;;;;4972581;28;20292;-71
2022/12/01 12:36:33;;;;;;;13.65;11.25;;;;;;;;;;4972908;28;20037;-71
2022/12/01 12:39:13;;;;;;;;;;;;;;;;;;4971823;28;20050;-71
2022/12/01 12:41:52;;;;;;;14.48;11.23;;;;;;;;;;4972589;28;19960;-71
2022/12/01 12:44:33;;;;;;;15.48;12.23;;;;;;;;;;4972372;28;20043;-71
2022/12/01 12:47:03;;;;;;;14.63;11.80;;;;;;;;;;4972432;28;20062;-72
2022/12/01 12:49:51;;;;;;;16.13;11.77;;;;;;;;;;4972274;28;20106;-72
2022/12/01 12:52:32;;;;;;;17.52;12.15;;;;;;;;;;4972740;28;20043;-72
2022/12/01 12:55:12;;;;;;;17.27;13.18;;;;;;;;;;4972606;28;20034;-71
2022/12/01 12:57:45;;;;;;;15.85;12.45;;;;;;;;;;4976438;28;20064;-72
2022/12/01 13:00:22;;;;;;;15.45;12.65;;;;;;;;;;4976108;28;20088;-72
2022/12/01 13:02:52;;;;;;;15.73;12.25;;;;;;;;;;4976240;28;20038;-70
2022/12/01 13:05:22;;;;;;;20.83;16.25;;;;;;;;;;4975702;28;20519;-72
2022/12/01 13:07:52;;;;;;;17.27;14.70;;;;;;;;;;4975294;28;20035;-73
2022/12/01 13:10:28;;;;;;;21.30;17.05;;;;;;;;;;4975890;28;20472;-73
2022/12/01 13:13:19;;;;;;;18.05;14.50;;;;;;;;;;4974890;28;20628;-72
2022/12/01 13:15:48;;;;;;;22.60;16.10;;;;;;;;;;4973262;28;20043;-72
2022/12/01 13:18:37;;;;;;;20.48;16.25;;;;;;;;;;4975740;28;20022;-73
2022/12/01 13:21:04;;;;;;;22.08;17.30;;;;;;;;;;4974663;28;20039;-73
2022/12/01 13:23:32;;;;;;;22.20;18.05;;;;;;;;;;4975323;28;20543;-70
2022/12/01 13:26:04;;;;;;;23.42;16.98;;;;;;;;;;4975882;28;20511;-72
2022/12/01 13:28:45;;;;;;;22.63;16.90;;;;;;;;;;4974459;28;20039;-72
2022/12/01 13:31:13;;;;;;;21.75;16.67;;;;;;;;;;4974201;28;20061;-73
2022/12/01 13:34:03;;;;;;;18.30;14.77;;;;;;;;;;4991465;28;20065;-72
2022/12/01 13:36:30;;;;;;;23.02;16.73;;;;;;;;;;4956309;28;20488;-72
2022/12/01 13:39:15;;;;;;;20.60;15.88;;;;;;;;;;4956371;28;20408;-72
2022/12/01 13:41:44;;;;;;;19.38;13.82;;;;;;;;;;4955740;28;20106;-72
2022/12/01 13:44:27;;;;;;;20.15;13.40;;;;;;;;;;4988358;28;20349;-70
2022/12/01 13:47:01;;;;;;;18.60;13.45;;;;;;;;;;4975649;28;20566;-71
2022/12/01 13:49:49;;;;;;;18.63;13.70;;;;;;;;;;4974008;28;20492;-71
2022/12/01 13:52:21;;;;;;;23.25;15.40;;;;;;;;;;4974581;28;20037;-71
2022/12/01 13:55:06;;;;;;;21.13;15.07;;;;;;;;;;4973656;28;20053;-71
2022/12/01 13:57:58;;;;;;;19.88;15.02;;;;;;;;;;4975760;28;20034;-72
2022/12/01 14:00:31;;;;;;;24.05;14.95;;;;;;;;;;4974485;28;20043;-73
2022/12/01 14:03:20;;;;;;;18.60;14.23;;;;;;;;;;4974339;28;20042;-72
2022/12/01 14:05:52;;;;;;;19.42;13.90;;;;;;;;;;4972148;28;20455;-71
2022/12/01 14:08:31;;;;;;;24.55;16.10;;;;;;;;;;4974047;28;20465;-71
2022/12/01 14:11:07;;;;;;;26.90;16.65;;;;;;;;;;4975011;28;20026;-71
2022/12/01 14:13:48;;;;;;;27.52;20.73;;;;;;;;;;4975197;28;20047;-70
2022/12/01 14:16:14;;;;;;;25.73;18.50;;;;;;;;;;4975504;28;20039;-72
2022/12/01 14:18:50;;;;;;;25.08;18.00;;;;;;;;;;4976085;28;20026;-72
2022/12/01 14:21:36;;;;;;;24.33;18.48;;;;;;;;;;4975433;28;20042;-73
2022/12/01 14:24:05;;;;;;;28.25;20.30;;;;;;;;;;4974510;28;20034;-72
2022/12/01 14:26:41;;;;;;;26.15;17.95;;;;;;;;;;4972068;28;20019;-72
2022/12/01 14:29:21;;;;;;;24.83;18.95;;;;;;;;;;4972997;28;20381;-73
2022/12/01 14:31:50;;;;;;;31.15;20.58;;;;;;;;;;4973915;28;20506;-73
2022/12/01 14:34:25;;;;;;;25.83;19.20;;;;;;;;;;4973918;28;20090;-73
2022/12/01 14:37:19;;;;;;;29.08;19.52;;;;;;;;;;4974502;28;20488;-73
2022/12/01 14:40:17;;;;;;;31.33;20.90;;;;;;;;;;4971683;28;20038;-72
2022/12/01 14:45:48;;;;;;;27.73;19.50;;;;;;;;;;4972949;28;20031;-72
2022/12/01 14:48:39;;;;;;;38.20;25.57;;;;;;;;;;4973434;28;20031;-73
2022/12/01 14:51:27;;;;;;;30.65;21.35;;;;;;;;;;4973668;28;20284;-73
2022/12/01 14:53:54;;;;;;;24.50;18.35;;;;;;;;;;4971759;28;20069;-73
2022/12/01 14:56:22;;;;;;;23.42;17.15;;;;;;;;;;4973776;28;20050;-74
2022/12/01 14:58:51;;;;;;;22.33;16.10;;;;;;;;;;4973807;28;20121;-72
2022/12/01 15:01:17;;;;;;;23.33;16.40;;;;;;;;;;4973806;28;20492;-74
2022/12/01 15:03:52;;;;;;;22.83;17.25;;;;;;;;;;4973300;28;20436;-72
2022/12/01 15:06:21;;;;;;;23.80;18.40;;;;;;;;;;4971665;28;20030;-73
2022/12/01 15:09:16;;;;;;;26.80;16.80;;;;;;;;;;4973678;28;20456;-72
2022/12/01 15:12:00;;;;;;;21.50;15.45;;;;;;;;;;4973719;28;20042;-73
2022/12/01 15:14:52;;;;;;;;;;;;;;;;;;4971371;28;20109;-73
2022/12/01 15:17:30;;;;;;;21.48;15.23;;;;;;;;;;4972538;28;20327;-73
2022/12/01 15:19:56;;;;;;;24.08;17.63;;;;;;;;;;4972741;28;20433;-73
2022/12/01 15:22:26;;;;;;;22.17;16.05;;;;;;;;;;4972113;28;20051;-71